New Harbor, ME

43° 52' 34"N, 69° 29' 40"W, Elevation 65 ft.
Eastern Time

Hourly observations for the last 72 hours

Date Time Temperature (°F) Humi-
dity

(%)
Wind
(mph)
Pressure Rain (in) Sun
(W/m2)
ET
(in)
Air Dew 6 Hour 1 Hr 3 Hr 6 Hr Day
Alt
(in)
Sea
Level

(mb)
Max Min
22 08:00 73.0 65.0 73.2 64.3 76 NE 4 G 10 29.82 1009.9 0.00 209 0.001
22 07:00 69.4 67.3 93 E 1 G 5 29.82 1010.0 0.00 40 0.000
22 06:00 64.9 63.7 96 Calm 29.81 1009.5 0.00 21 0.000
22 05:00 64.8 63.3 95 Calm 29.79 1008.8 0.00 0 0.000
22 04:00 64.9 63.1 94 Calm 29.78 1008.4 0.00 0 0.000
22 03:00 66.1 64.0 93 Calm 29.77 1008.1 0.00 0 0.000
22 02:00 67.8 64.8 76.7 67.8 90 Calm 29.75 1007.6 0.00 0 0.000
22 01:00 70.0 66.6 89 NNE 0 G 3 29.74 1007.3 0.00 0 0.000
22 00:00 70.8 67.7 90 Calm 29.74 1007.0 0.01 0 0.156
21 23:00 72.7 68.3 86 NNE 0 G 1 29.73 1006.7 0.01 0 0.155
21 22:00 73.6 67.8 82 Calm 29.71 1006.2 0.01 0 0.154
21 21:00 74.8 70.0 85 Calm 29.70 1005.7 0.01 0 0.154
21 20:00 76.7 70.8 89.3 76.7 82 NNW 0 G 1 29.68 1005.3 0.01 11 0.153
21 19:00 83.0 69.6 64 NNW 1 G 8 29.66 1004.4 0.01 21 0.150
21 18:00 84.6 72.9 68 N 2 G 8 29.64 1003.8 0.01 67 0.140
21 17:00 87.4 72.3 61 NW 6 G 15 29.62 1003.2 0.01 478 0.124
21 16:00 87.1 72.0 61 NNW 3 G 11 29.61 1002.7 0.01 628 0.107
21 15:00 86.4 77.1 74 NNE 1 G 8 29.58 1001.8 0.01 206 0.089
21 14:00 84.7 79.7 91.8 79.6 85 W 0 G 6 29.57 1001.2 0.01 0.01 0.01 0.01 856 0.075
21 13:00 83.3 74.6 75 WSW 2 G 8 29.55 1000.8 0.00 70 0.061
21 12:00 89.1 78.9 72 SSW 1 G 5 29.56 1001.2 0.00 874 0.040
21 11:00 87.7 79.6 77 WSW 1 G 7 29.57 1001.2 0.00 554 0.026
21 10:00 87.0 77.7 74 S 2 G 4 29.57 1001.5 0.00 366 0.013
21 09:00 84.1 77.3 80 WNW 4 G 7 29.59 1002.2 0.00 445 0.004
21 08:00 79.6 75.4 79.7 69.9 87 WSW 1 G 3 29.58 1001.9 0.00 65 0.002
21 07:00 75.4 73.2 93 WNW 2 G 7 29.60 1002.4 0.00 39 0.001
21 06:00 71.3 69.8 95 W 1 G 3 29.60 1002.4 0.00 30 0.001
21 05:00 70.0 68.2 94 Calm 29.60 1002.3 0.00 0 0.001
21 04:00 70.5 68.7 94 WNW 1 G 2 29.60 1002.4 0.00 0 0.001
21 03:00 70.7 68.6 93 NW 0 G 2 29.60 1002.3 0.00 0 0.001
21 02:00 71.6 69.2 75.6 71.6 92 NW 0 G 3 29.60 1002.4 0.00 0 0.001
21 01:00 72.4 69.6 91 W 2 G 5 29.61 1002.8 0.00 0 0.000
21 00:00 73.0 69.9 90 WSW 3 G 10 29.63 1003.3 0.00 0 0.178
20 23:00 72.9 69.1 88 WSW 3 G 9 29.64 1003.7 0.00 0 0.177
20 22:00 72.8 68.7 87 W 4 G 10 29.66 1004.4 0.00 0 0.176
20 21:00 74.5 70.0 86 W 1 G 10 29.67 1004.9 0.00 0 0.176
20 20:00 75.6 70.8 90.0 75.6 85 WSW 4 G 7 29.69 1005.3 0.00 7 0.175
20 19:00 76.9 71.0 82 W 4 G 10 29.67 1004.7 0.00 74 0.172
20 18:00 81.8 72.3 73 S 3 G 8 29.65 1004.1 0.00 86 0.163
20 17:00 83.5 74.3 74 SSW 3 G 8 29.66 1004.6 0.00 461 0.148
20 16:00 85.9 75.0 70 S 3 G 10 29.69 1005.3 0.00 619 0.128
20 15:00 89.3 75.5 64 S 2 G 11 29.68 1005.2 0.00 768 0.105
20 14:00 88.1 76.7 89.2 75.1 69 SSW 3 G 8 29.70 1006.0 0.00 793 0.083
20 13:00 86.7 76.2 71 SSW 4 G 8 29.71 1006.2 0.00 728 0.064
20 12:00 86.3 77.4 75 S 1 G 9 29.72 1006.4 0.00 905 0.045
20 11:00 84.8 76.4 76 S 1 G 6 29.73 1006.7 0.00 619 0.026
20 10:00 81.9 74.4 78 S 0 G 6 29.72 1006.4 0.00 708 0.011
20 09:00 81.0 74.6 81 NNW 2 G 5 29.71 1006.2 0.00 431 0.003
20 08:00 75.1 72.3 75.2 62.7 91 NW 1 G 4 29.72 1006.4 0.00 113 0.001
20 07:00 68.3 67.1 96 NNW 0 G 3 29.70 1005.7 0.00 70 0.000
20 06:00 64.9 64.0 97 Calm 29.68 1005.1 0.00 32 0.000
20 05:00 63.4 62.2 96 Calm 29.67 1004.9 0.00 0 0.000
20 04:00 63.1 61.9 96 NNE 0 G 2 29.67 1004.8 0.00 0 0.000
20 03:00 63.6 62.1 95 Calm 29.66 1004.6 0.00 0 0.000
20 02:00 65.6 64.1 68.7 64.8 95 Calm 29.66 1004.3 0.00 0 0.000
20 01:00 66.6 64.8 94 NNW 0 G 1 29.65 1004.2 0.00 0 0.000
20 00:00 68.2 66.7 95 W 2 G 7 29.65 1004.2 0.00 0 0.170
19 23:00 67.6 65.8 94 WSW 1 G 3 29.67 1004.9 0.00 0 0.170
19 22:00 68.4 66.3 93 W 3 G 9 29.68 1005.0 0.00 0 0.170
19 21:00 67.8 65.7 93 W 3 G 7 29.68 1005.2 0.00 0 0.170
19 20:00 68.3 65.3 75.3 68.1 90 W 4 G 9 29.69 1005.3 0.00 11 0.169
19 19:00 68.5 64.5 87 S 1 G 7 29.69 1005.5 0.00 44 0.167
19 18:00 70.8 65.0 82 S 4 G 9 29.70 1005.9 0.00 83 0.159
19 17:00 73.7 65.7 76 SSE 3 G 9 29.73 1006.6 0.00 480 0.145
19 16:00 72.7 64.7 76 SSW 4 G 12 29.75 1007.5 0.00 633 0.127
19 15:00 73.7 62.1 67 S 5 G 13 29.74 1007.1 0.00 766 0.106
19 14:00 71.9 62.4 76.8 63.2 72 S 5 G 12 29.77 1008.2 0.00 868 0.083
19 13:00 74.4 62.3 66 S 3 G 7 29.78 1008.5 0.00 909 0.061
19 12:00 73.9 61.8 66 SE 1 G 4 29.80 1009.2 0.00 891 0.042
19 11:00 69.9 60.5 72 SSE 2 G 5 29.81 1009.5 0.00 668 0.025
19 10:00 68.9 59.9 73 S 1 G 6 29.82 1010.0 0.00 705 0.011
19 09:00 66.5 59.4 78 ENE 1 G 3 29.84 1010.5 0.00 464 0.002

Data generated by WxSolution Version 1.9.1.5, Build 2018.05.20.